Aérodrome :
LOGIN :

S'inscrire | Disclaimer

   EN    FR    IT 

 










Légende :    VFR   VFR Marginal   IFR   IFR Intensif   IFR Très Intensif
Visi : 
Plafond : 
>= 8 km
>= 3000ft
5 à 8 km
1000 à 3000 ft
1500m à 5 km
500 à 1000 ft
800 à 1500m
200 à 500 ft
< 800m
< 200 ft
Symboles :   Orages  Brouillard  Fortes neiges  Fortes précipitations  Vent > 20 kt
SIGMETs :   Divers  Orages  Givrage  Turbulence  Onde Orograph.  Cendres Volcan.






- Altitude de l'aérodrome : 23 ft
- Code IATA : XFW


EDHI - Hamburg Finkenwerder

DERNIER METAR :
  • 141120Z 18008KT 140V220 CAVOK 19/08 Q1008

METARs EXPIRÉS :
  • 141050Z 20012KT CAVOK 19/07 Q1009
  • 141020Z 20010KT 170V230 CAVOK 19/08 Q1009
  • 140950Z 20011KT CAVOK 19/09 Q1009
  • 140920Z 19010KT 160V220 CAVOK 18/09 Q1009
  • 140850Z 19008KT 130V220 CAVOK 18/09 Q1009
  • 140820Z 19009KT 160V220 CAVOK 17/08 Q1009
  • 140750Z 14007KT CAVOK 17/08 Q1009
  • 140720Z 14008KT CAVOK 16/08 Q1009
  • 140650Z 13006KT 100V170 CAVOK 15/08 Q1009

TAF TAF EDHI
Valide du 14 à 09h jusqu'au 14 à 18h UTC


140800Z 1409/1418 16008KT CAVOK



MET'MAP, la Météo Aéronautique d'un coup d'oeil ! - Copyright ORBIFLY Décembre 2007 - Disclaimer

ORBIFLY MET'MAP TEAM :

Programmation & Développement : Alexandra Zaïnal
Sur une idée originale de : Baudouin d'Aumeries
Soutien technique & logistique : Manuel Goepfert
Assistance : Marc-Olivier Méhu




SOURCES & CREDITS :

   NOAA